sensor_id;sensor_type;location;lat;lon;timestamp;pressure;altitude;pressure_sealevel;temperature;humidity
19890;BME280;10107;51.198;6.824;2022-12-18T00:00:21;-21173.94;;;-5.60;100.00
19890;BME280;10107;51.198;6.824;2022-12-18T00:04:24;-21172.19;;;-5.66;100.00
19890;BME280;10107;51.198;6.824;2022-12-18T00:08:29;-21171.38;;;-5.69;100.00
19890;BME280;10107;51.198;6.824;2022-12-18T00:12:33;-21170.16;;;-5.74;100.00
19890;BME280;10107;51.198;6.824;2022-12-18T00:16:37;-21169.19;;;-5.78;100.00
19890;BME280;10107;51.198;6.824;2022-12-18T00:20:38;-21167.44;;;-5.84;100.00
19890;BME280;10107;51.198;6.824;2022-12-18T00:24:40;-21167.03;;;-5.86;100.00
19890;BME280;10107;51.198;6.824;2022-12-18T00:28:43;-21164.72;;;-5.94;100.00
19890;BME280;10107;51.198;6.824;2022-12-18T00:32:48;-21160.81;;;-6.09;100.00
19890;BME280;10107;51.198;6.824;2022-12-18T00:36:51;-21159.59;;;-6.14;100.00
19890;BME280;10107;51.198;6.824;2022-12-18T00:40:56;-21161.34;;;-6.07;100.00
19890;BME280;10107;51.198;6.824;2022-12-18T00:45:00;-21161.63;;;-6.06;100.00
19890;BME280;10107;51.198;6.824;2022-12-18T00:49:04;-21162.44;;;-6.03;100.00
19890;BME280;10107;51.198;6.824;2022-12-18T00:53:09;-21163.66;;;-5.99;100.00
19890;BME280;10107;51.198;6.824;2022-12-18T00:57:16;-21165.13;;;-5.93;100.00
19890;BME280;10107;51.198;6.824;2022-12-18T01:01:29;-21166.50;;;-5.88;100.00
19890;BME280;10107;51.198;6.824;2022-12-18T01:05:42;-21164.59;;;-5.95;100.00
19890;BME280;10107;51.198;6.824;2022-12-18T01:09:48;-21163.91;;;-5.98;100.00
19890;BME280;10107;51.198;6.824;2022-12-18T01:13:52;-21163.50;;;-5.99;100.00
19890;BME280;10107;51.198;6.824;2022-12-18T01:17:56;-21164.34;;;-5.96;100.00
19890;BME280;10107;51.198;6.824;2022-12-18T01:22:02;-21164.72;;;-5.94;100.00
19890;BME280;10107;51.198;6.824;2022-12-18T01:26:06;-21162.69;;;-6.02;100.00
19890;BME280;10107;51.198;6.824;2022-12-18T01:30:10;-21160.53;;;-6.10;100.00
19890;BME280;10107;51.198;6.824;2022-12-18T01:34:13;-21158.38;;;-6.19;100.00
19890;BME280;10107;51.198;6.824;2022-12-18T01:38:32;-21156.47;;;-6.26;100.00
19890;BME280;10107;51.198;6.824;2022-12-18T01:42:34;-21154.16;;;-6.34;100.00
19890;BME280;10107;51.198;6.824;2022-12-18T01:46:37;-21151.84;;;-6.43;100.00
19890;BME280;10107;51.198;6.824;2022-12-18T01:50:40;-21149.00;;;-6.54;100.00
19890;BME280;10107;51.198;6.824;2022-12-18T01:54:46;-21148.06;;;-6.58;100.00
19890;BME280;10107;51.198;6.824;2022-12-18T01:58:53;-21145.63;;;-6.67;100.00
19890;BME280;10107;51.198;6.824;2022-12-18T02:02:56;-21144.25;;;-6.72;100.00
19890;BME280;10107;51.198;6.824;2022-12-18T02:07:05;-21146.69;;;-6.63;100.00
19890;BME280;10107;51.198;6.824;2022-12-18T02:11:17;-21145.06;;;-6.69;100.00
19890;BME280;10107;51.198;6.824;2022-12-18T02:15:25;-21144.53;;;-6.71;100.00
19890;BME280;10107;51.198;6.824;2022-12-18T02:19:41;-21144.13;;;-6.72;100.00
19890;BME280;10107;51.198;6.824;2022-12-18T02:23:52;-21143.72;;;-6.74;100.00
19890;BME280;10107;51.198;6.824;2022-12-18T02:28:06;-21142.22;;;-6.80;100.00
19890;BME280;10107;51.198;6.824;2022-12-18T02:32:14;-21139.38;;;-6.90;100.00
19890;BME280;10107;51.198;6.824;2022-12-18T02:36:22;-21137.34;;;-6.98;100.00
19890;BME280;10107;51.198;6.824;2022-12-18T02:40:27;-21137.06;;;-6.99;100.00
19890;BME280;10107;51.198;6.824;2022-12-18T02:44:33;-21137.19;;;-6.99;100.00
19890;BME280;10107;51.198;6.824;2022-12-18T02:48:38;-21134.63;;;-7.08;100.00
19890;BME280;10107;51.198;6.824;2022-12-18T02:52:54;-21131.78;;;-7.19;100.00
19890;BME280;10107;51.198;6.824;2022-12-18T02:57:01;-21129.59;;;-7.27;100.00
19890;BME280;10107;51.198;6.824;2022-12-18T03:01:14;-21127.97;;;-7.33;100.00
19890;BME280;10107;51.198;6.824;2022-12-18T03:05:22;-21126.06;;;-7.41;100.00
19890;BME280;10107;51.198;6.824;2022-12-18T03:09:32;-21125.53;;;-7.43;100.00
19890;BME280;10107;51.198;6.824;2022-12-18T03:13:40;-21125.25;;;-7.44;100.00
19890;BME280;10107;51.198;6.824;2022-12-18T03:17:52;-21124.44;;;-7.47;100.00
19890;BME280;10107;51.198;6.824;2022-12-18T03:22:03;-21125.53;;;-7.43;100.00
19890;BME280;10107;51.198;6.824;2022-12-18T03:26:21;-21129.59;;;-7.27;100.00
19890;BME280;10107;51.198;6.824;2022-12-18T03:30:32;-21133.94;;;-7.11;100.00
19890;BME280;10107;51.198;6.824;2022-12-18T03:34:41;-21137.47;;;-6.98;100.00
19890;BME280;10107;51.198;6.824;2022-12-18T03:38:51;-21141.81;;;-6.81;100.00
19890;BME280;10107;51.198;6.824;2022-12-18T03:42:59;-21143.44;;;-6.75;100.00
19890;BME280;10107;51.198;6.824;2022-12-18T03:47:10;-21144.78;;;-6.70;100.00
19890;BME280;10107;51.198;6.824;2022-12-18T03:51:23;-21146.56;;;-6.63;100.00
19890;BME280;10107;51.198;6.824;2022-12-18T03:55:32;-21146.00;;;-6.65;100.00
19890;BME280;10107;51.198;6.824;2022-12-18T03:59:39;-21144.78;;;-6.70;100.00
19890;BME280;10107;51.198;6.824;2022-12-18T04:03:44;-21143.84;;;-6.73;100.00
19890;BME280;10107;51.198;6.824;2022-12-18T04:07:58;-21146.00;;;-6.65;100.00
19890;BME280;10107;51.198;6.824;2022-12-18T04:12:02;-21142.91;;;-6.77;100.00
19890;BME280;10107;51.198;6.824;2022-12-18T04:16:05;-21139.91;;;-6.88;100.00
19890;BME280;10107;51.198;6.824;2022-12-18T04:20:08;-21140.19;;;-6.87;100.00
19890;BME280;10107;51.198;6.824;2022-12-18T04:24:18;-21140.31;;;-6.87;100.00
19890;BME280;10107;51.198;6.824;2022-12-18T04:28:37;-21137.75;;;-6.97;100.00
19890;BME280;10107;51.198;6.824;2022-12-18T04:32:41;-21134.75;;;-7.08;100.00
19890;BME280;10107;51.198;6.824;2022-12-18T04:36:44;-21133.53;;;-7.12;100.00
19890;BME280;10107;51.198;6.824;2022-12-18T04:40:52;-21131.78;;;-7.19;100.00
19890;BME280;10107;51.198;6.824;2022-12-18T04:45:01;-21130.28;;;-7.25;100.00
19890;BME280;10107;51.198;6.824;2022-12-18T04:49:05;-21131.78;;;-7.19;100.00
19890;BME280;10107;51.198;6.824;2022-12-18T04:53:07;-21133.53;;;-7.12;100.00
19890;BME280;10107;51.198;6.824;2022-12-18T04:57:12;-21134.22;;;-7.10;100.00
19890;BME280;10107;51.198;6.824;2022-12-18T05:01:17;-21136.25;;;-7.02;100.00
19890;BME280;10107;51.198;6.824;2022-12-18T05:05:21;-21137.34;;;-6.98;100.00
19890;BME280;10107;51.198;6.824;2022-12-18T05:09:26;-21138.16;;;-6.95;100.00
19890;BME280;10107;51.198;6.824;2022-12-18T05:13:32;-21139.22;;;-6.91;100.00
19890;BME280;10107;51.198;6.824;2022-12-18T05:17:38;-21140.47;;;-6.86;100.00
19890;BME280;10107;51.198;6.824;2022-12-18T05:21:41;-21139.78;;;-6.89;100.00
19890;BME280;10107;51.198;6.824;2022-12-18T05:25:47;-21139.38;;;-6.90;100.00
19890;BME280;10107;51.198;6.824;2022-12-18T05:29:52;-21139.38;;;-6.90;100.00
19890;BME280;10107;51.198;6.824;2022-12-18T05:33:55;-21140.59;;;-6.86;100.00
19890;BME280;10107;51.198;6.824;2022-12-18T05:37:57;-21141.81;;;-6.81;100.00
19890;BME280;10107;51.198;6.824;2022-12-18T05:42:01;-21143.44;;;-6.75;100.00
19890;BME280;10107;51.198;6.824;2022-12-18T05:46:08;-21144.38;;;-6.71;100.00
19890;BME280;10107;51.198;6.824;2022-12-18T05:50:15;-21146.00;;;-6.65;100.00
19890;BME280;10107;51.198;6.824;2022-12-18T05:54:18;-21145.06;;;-6.69;100.00
19890;BME280;10107;51.198;6.824;2022-12-18T05:58:22;-21146.69;;;-6.63;100.00
19890;BME280;10107;51.198;6.824;2022-12-18T06:02:25;-21147.25;;;-6.61;100.00
19890;BME280;10107;51.198;6.824;2022-12-18T06:06:27;-21147.50;;;-6.60;100.00
19890;BME280;10107;51.198;6.824;2022-12-18T06:10:29;-21145.34;;;-6.68;100.00
19890;BME280;10107;51.198;6.824;2022-12-18T06:14:31;-21144.66;;;-6.70;100.00
19890;BME280;10107;51.198;6.824;2022-12-18T06:18:34;-21145.22;;;-6.68;100.00
19890;BME280;10107;51.198;6.824;2022-12-18T06:22:35;-21147.78;;;-6.59;100.00
19890;BME280;10107;51.198;6.824;2022-12-18T06:26:38;-21148.31;;;-6.57;100.00
19890;BME280;10107;51.198;6.824;2022-12-18T06:30:40;-21150.50;;;-6.48;100.00
19890;BME280;10107;51.198;6.824;2022-12-18T06:34:45;-21154.03;;;-6.35;100.00
19890;BME280;10107;51.198;6.824;2022-12-18T06:38:47;-21158.09;;;-6.20;100.00
19890;BME280;10107;51.198;6.824;2022-12-18T06:42:49;-21159.31;;;-6.15;100.00
19890;BME280;10107;51.198;6.824;2022-12-18T06:46:50;-21159.44;;;-6.14;100.00
19890;BME280;10107;51.198;6.824;2022-12-18T06:50:54;-21158.22;;;-6.19;100.00
19890;BME280;10107;51.198;6.824;2022-12-18T06:54:55;-21156.72;;;-6.25;100.00
19890;BME280;10107;51.198;6.824;2022-12-18T06:58:57;-21156.06;;;-6.27;100.00
19890;BME280;10107;51.198;6.824;2022-12-18T07:02:59;-21156.19;;;-6.27;100.00
19890;BME280;10107;51.198;6.824;2022-12-18T07:07:02;-21156.47;;;-6.26;100.00
19890;BME280;10107;51.198;6.824;2022-12-18T07:11:04;-21157.28;;;-6.23;100.00
19890;BME280;10107;51.198;6.824;2022-12-18T07:15:07;-21157.53;;;-6.22;100.00
19890;BME280;10107;51.198;6.824;2022-12-18T07:19:08;-21158.38;;;-6.19;100.00
19890;BME280;10107;51.198;6.824;2022-12-18T07:23:12;-21160.94;;;-6.09;100.00
19890;BME280;10107;51.198;6.824;2022-12-18T07:27:13;-21164.19;;;-5.97;100.00
19890;BME280;10107;51.198;6.824;2022-12-18T07:31:17;-21167.97;;;-5.82;100.00
19890;BME280;10107;51.198;6.824;2022-12-18T07:35:18;-21171.91;;;-5.67;100.00
19890;BME280;10107;51.198;6.824;2022-12-18T07:39:21;-21174.91;;;-5.56;100.00
19890;BME280;10107;51.198;6.824;2022-12-18T07:43:23;-21177.88;;;-5.45;100.00
19890;BME280;10107;51.198;6.824;2022-12-18T07:47:25;-21181.94;;;-5.29;100.00
19890;BME280;10107;51.198;6.824;2022-12-18T07:51:26;-21184.09;;;-5.21;100.00
19890;BME280;10107;51.198;6.824;2022-12-18T07:55:29;-21186.13;;;-5.13;100.00
19890;BME280;10107;51.198;6.824;2022-12-18T07:59:31;-21188.72;;;-5.04;100.00
19890;BME280;10107;51.198;6.824;2022-12-18T08:03:33;-21189.53;;;-5.01;100.00
19890;BME280;10107;51.198;6.824;2022-12-18T08:07:34;-21191.16;;;-4.94;99.88
19890;BME280;10107;51.198;6.824;2022-12-18T08:11:38;-21192.22;;;-4.90;99.46
19890;BME280;10107;51.198;6.824;2022-12-18T08:15:40;-21193.59;;;-4.85;98.73
19890;BME280;10107;51.198;6.824;2022-12-18T08:19:41;-21194.53;;;-4.82;98.60
19890;BME280;10107;51.198;6.824;2022-12-18T08:23:43;-21195.22;;;-4.79;98.28
19890;BME280;10107;51.198;6.824;2022-12-18T08:27:46;-21198.31;;;-4.67;97.72
19890;BME280;10107;51.198;6.824;2022-12-18T08:31:48;-21201.31;;;-4.56;97.45
19890;BME280;10107;51.198;6.824;2022-12-18T08:35:50;-21205.34;;;-4.41;96.88
19890;BME280;10107;51.198;6.824;2022-12-18T08:39:51;-21208.59;;;-4.28;96.10
19890;BME280;10107;51.198;6.824;2022-12-18T08:43:54;-21213.75;;;-4.09;94.95
19890;BME280;10107;51.198;6.824;2022-12-18T08:48:13;-21217.94;;;-3.93;93.39
19890;BME280;10107;51.198;6.824;2022-12-18T08:52:15;-21225.38;;;-3.65;92.78
19890;BME280;10107;51.198;6.824;2022-12-18T08:56:16;-21232.13;;;-3.39;91.40
19890;BME280;10107;51.198;6.824;2022-12-18T09:00:20;-21241.03;;;-3.05;89.67
19890;BME280;10107;51.198;6.824;2022-12-18T09:04:21;-21260.34;;;-2.32;87.33
19890;BME280;10107;51.198;6.824;2022-12-18T09:08:23;-21334.84;;;0.52;74.50
19890;BME280;10107;51.198;6.824;2022-12-18T09:12:25;-21363.72;;;1.62;67.31
19890;BME280;10107;51.198;6.824;2022-12-18T09:16:29;-21349.47;;;1.08;66.81
19890;BME280;10107;51.198;6.824;2022-12-18T09:20:31;-21308.34;;;-0.49;72.41
19890;BME280;10107;51.198;6.824;2022-12-18T09:24:33;-21284.63;;;-1.40;77.34
19890;BME280;10107;51.198;6.824;2022-12-18T09:28:35;-21271.16;;;-1.91;81.09
19890;BME280;10107;51.198;6.824;2022-12-18T09:32:38;-21262.66;;;-2.23;82.58
19890;BME280;10107;51.198;6.824;2022-12-18T09:36:39;-21262.91;;;-2.22;83.72
19890;BME280;10107;51.198;6.824;2022-12-18T09:40:43;-21263.19;;;-2.21;83.62
19890;BME280;10107;51.198;6.824;2022-12-18T09:44:49;-21266.28;;;-2.09;82.93
19890;BME280;10107;51.198;6.824;2022-12-18T09:48:56;-21267.38;;;-2.05;82.91
19890;BME280;10107;51.198;6.824;2022-12-18T09:53:05;-21269.13;;;-1.98;83.17
19890;BME280;10107;51.198;6.824;2022-12-18T09:57:13;-21271.16;;;-1.91;82.65
19890;BME280;10107;51.198;6.824;2022-12-18T10:01:19;-21272.91;;;-1.84;82.37
19890;BME280;10107;51.198;6.824;2022-12-18T10:05:30;-21275.06;;;-1.76;82.21
19890;BME280;10107;51.198;6.824;2022-12-18T10:09:41;-21275.31;;;-1.75;81.92
19890;BME280;10107;51.198;6.824;2022-12-18T10:13:48;-21276.53;;;-1.70;81.82
19890;BME280;10107;51.198;6.824;2022-12-18T10:17:57;-21278.44;;;-1.63;81.57
19890;BME280;10107;51.198;6.824;2022-12-18T10:22:11;-21281.25;;;-1.52;81.05
19890;BME280;10107;51.198;6.824;2022-12-18T10:26:16;-21284.91;;;-1.38;81.40
19890;BME280;10107;51.198;6.824;2022-12-18T10:30:19;-21286.09;;;-1.34;80.40
19890;BME280;10107;51.198;6.824;2022-12-18T10:34:23;-21292.16;;;-1.11;80.17
19890;BME280;10107;51.198;6.824;2022-12-18T10:38:27;-21295.94;;;-0.96;78.86
19890;BME280;10107;51.198;6.824;2022-12-18T10:42:29;-21296.88;;;-0.93;77.39
19890;BME280;10107;51.198;6.824;2022-12-18T10:46:32;-21299.19;;;-0.84;76.73
19890;BME280;10107;51.198;6.824;2022-12-18T10:50:36;-21303.47;;;-0.68;77.35
19890;BME280;10107;51.198;6.824;2022-12-18T10:54:45;-21305.91;;;-0.58;75.90
19890;BME280;10107;51.198;6.824;2022-12-18T10:58:56;-21311.16;;;-0.38;74.62
19890;BME280;10107;51.198;6.824;2022-12-18T11:02:58;-21313.59;;;-0.29;73.92
19890;BME280;10107;51.198;6.824;2022-12-18T11:07:01;-21321.53;;;0.01;73.20
19890;BME280;10107;51.198;6.824;2022-12-18T11:11:09;-21323.94;;;0.10;72.40
19890;BME280;10107;51.198;6.824;2022-12-18T11:15:20;-21326.50;;;0.20;72.90
19890;BME280;10107;51.198;6.824;2022-12-18T11:19:30;-21327.72;;;0.25;72.92
19890;BME280;10107;51.198;6.824;2022-12-18T11:23:34;-21329.59;;;0.32;71.30
19890;BME280;10107;51.198;6.824;2022-12-18T11:27:37;-21328.78;;;0.29;71.15
19890;BME280;10107;51.198;6.824;2022-12-18T11:31:40;-21324.63;;;0.13;72.12
19890;BME280;10107;51.198;6.824;2022-12-18T11:35:51;-21322.88;;;0.06;72.02
19890;BME280;10107;51.198;6.824;2022-12-18T11:39:56;-21320.72;;;-0.02;73.10
19890;BME280;10107;51.198;6.824;2022-12-18T11:44:07;-21319.63;;;-0.06;72.39
19890;BME280;10107;51.198;6.824;2022-12-18T11:48:17;-21318.44;;;-0.11;74.15
19890;BME280;10107;51.198;6.824;2022-12-18T11:52:24;-21315.88;;;-0.21;73.63
19890;BME280;10107;51.198;6.824;2022-12-18T11:56:31;-21313.44;;;-0.30;74.56
19890;BME280;10107;51.198;6.824;2022-12-18T12:00:41;-21311.84;;;-0.36;75.24
19890;BME280;10107;51.198;6.824;2022-12-18T12:05:02;-21312.38;;;-0.34;74.81
19890;BME280;10107;51.198;6.824;2022-12-18T12:09:17;-21310.34;;;-0.42;74.78
19890;BME280;10107;51.198;6.824;2022-12-18T12:13:33;-21310.50;;;-0.41;74.83
19890;BME280;10107;51.198;6.824;2022-12-18T12:17:44;-21309.94;;;-0.43;75.82
19890;BME280;10107;51.198;6.824;2022-12-18T12:21:53;-21308.34;;;-0.49;75.33
19890;BME280;10107;51.198;6.824;2022-12-18T12:26:03;-21306.59;;;-0.56;75.04
19890;BME280;10107;51.198;6.824;2022-12-18T12:30:16;-21308.06;;;-0.50;76.17
19890;BME280;10107;51.198;6.824;2022-12-18T12:34:23;-21309.28;;;-0.46;76.45
19890;BME280;10107;51.198;6.824;2022-12-18T12:38:34;-21309.81;;;-0.44;75.38
19890;BME280;10107;51.198;6.824;2022-12-18T12:42:41;-21305.91;;;-0.58;75.55
19890;BME280;10107;51.198;6.824;2022-12-18T12:47:09;-21304.28;;;-0.65;75.65
19890;BME280;10107;51.198;6.824;2022-12-18T12:51:17;-21302.28;;;-0.72;75.17
19890;BME280;10107;51.198;6.824;2022-12-18T12:55:21;-21301.06;;;-0.77;75.38
19890;BME280;10107;51.198;6.824;2022-12-18T12:59:28;-21298.38;;;-0.87;76.14
19890;BME280;10107;51.198;6.824;2022-12-18T13:03:42;-21297.97;;;-0.89;77.14
19890;BME280;10107;51.198;6.824;2022-12-18T13:07:54;-21299.19;;;-0.84;77.60
19890;BME280;10107;51.198;6.824;2022-12-18T13:12:02;-21298.91;;;-0.85;76.06
19890;BME280;10107;51.198;6.824;2022-12-18T13:16:27;-21299.19;;;-0.84;76.93
19890;BME280;10107;51.198;6.824;2022-12-18T13:20:36;-21300.53;;;-0.79;77.31
19890;BME280;10107;51.198;6.824;2022-12-18T13:24:40;-21299.31;;;-0.84;76.64
19890;BME280;10107;51.198;6.824;2022-12-18T13:28:52;-21297.56;;;-0.90;76.74
19890;BME280;10107;51.198;6.824;2022-12-18T13:33:38;-21295.41;;;-0.98;75.95
19890;BME280;10107;51.198;6.824;2022-12-18T13:37:43;-21294.88;;;-1.01;76.86
19890;BME280;10107;51.198;6.824;2022-12-18T13:41:48;-21293.53;;;-1.06;75.57
19890;BME280;10107;51.198;6.824;2022-12-18T13:46:01;-21293.53;;;-1.06;75.78
19890;BME280;10107;51.198;6.824;2022-12-18T13:50:10;-21293.66;;;-1.05;75.80
19890;BME280;10107;51.198;6.824;2022-12-18T13:54:22;-21293.53;;;-1.06;76.57
19890;BME280;10107;51.198;6.824;2022-12-18T13:58:26;-21293.25;;;-1.07;76.35
19890;BME280;10107;51.198;6.824;2022-12-18T14:02:28;-21293.78;;;-1.05;76.08
19890;BME280;10107;51.198;6.824;2022-12-18T14:06:31;-21292.03;;;-1.11;76.14
19890;BME280;10107;51.198;6.824;2022-12-18T14:10:32;-21290.03;;;-1.19;75.34
19890;BME280;10107;51.198;6.824;2022-12-18T14:14:36;-21289.88;;;-1.20;76.67
19890;BME280;10107;51.198;6.824;2022-12-18T14:18:38;-21288.81;;;-1.24;76.41
19890;BME280;10107;51.198;6.824;2022-12-18T14:22:42;-21287.59;;;-1.28;76.89
19890;BME280;10107;51.198;6.824;2022-12-18T14:26:45;-21286.66;;;-1.32;77.36
19890;BME280;10107;51.198;6.824;2022-12-18T14:30:49;-21286.38;;;-1.33;77.72
19890;BME280;10107;51.198;6.824;2022-12-18T14:34:52;-21285.97;;;-1.34;77.97
19890;BME280;10107;51.198;6.824;2022-12-18T14:38:57;-21285.97;;;-1.34;77.70
19890;BME280;10107;51.198;6.824;2022-12-18T14:42:59;-21284.91;;;-1.38;77.95
19890;BME280;10107;51.198;6.824;2022-12-18T14:47:02;-21283.28;;;-1.45;78.12
19890;BME280;10107;51.198;6.824;2022-12-18T14:51:06;-21282.47;;;-1.48;78.25
19890;BME280;10107;51.198;6.824;2022-12-18T14:55:15;-21281.66;;;-1.51;78.83
19890;BME280;10107;51.198;6.824;2022-12-18T14:59:19;-21280.84;;;-1.54;78.66
19890;BME280;10107;51.198;6.824;2022-12-18T15:03:24;-21280.31;;;-1.56;78.69
19890;BME280;10107;51.198;6.824;2022-12-18T15:07:26;-21278.69;;;-1.62;79.47
19890;BME280;10107;51.198;6.824;2022-12-18T15:11:33;-21278.28;;;-1.64;79.34
19890;BME280;10107;51.198;6.824;2022-12-18T15:15:45;-21277.06;;;-1.68;79.39
19890;BME280;10107;51.198;6.824;2022-12-18T15:19:50;-21276.81;;;-1.69;79.71
19890;BME280;10107;51.198;6.824;2022-12-18T15:23:52;-21276.53;;;-1.70;79.31
19890;BME280;10107;51.198;6.824;2022-12-18T15:27:54;-21276.41;;;-1.71;79.57
19890;BME280;10107;51.198;6.824;2022-12-18T15:32:01;-21276.00;;;-1.72;79.98
19890;BME280;10107;51.198;6.824;2022-12-18T15:36:08;-21274.91;;;-1.76;79.64
19890;BME280;10107;51.198;6.824;2022-12-18T15:40:15;-21275.19;;;-1.75;79.98
19890;BME280;10107;51.198;6.824;2022-12-18T15:44:22;-21274.91;;;-1.76;80.10
19890;BME280;10107;51.198;6.824;2022-12-18T15:48:24;-21273.97;;;-1.80;80.86
19890;BME280;10107;51.198;6.824;2022-12-18T15:52:27;-21273.31;;;-1.83;80.66
19890;BME280;10107;51.198;6.824;2022-12-18T15:56:29;-21272.34;;;-1.86;80.90
19890;BME280;10107;51.198;6.824;2022-12-18T16:00:48;-21271.94;;;-1.88;81.20
19890;BME280;10107;51.198;6.824;2022-12-18T16:04:50;-21271.28;;;-1.90;81.41
19890;BME280;10107;51.198;6.824;2022-12-18T16:08:55;-21271.16;;;-1.91;81.77
19890;BME280;10107;51.198;6.824;2022-12-18T16:12:57;-21271.00;;;-1.91;81.66
19890;BME280;10107;51.198;6.824;2022-12-18T16:17:00;-21270.47;;;-1.93;82.15
19890;BME280;10107;51.198;6.824;2022-12-18T16:21:02;-21270.19;;;-1.94;82.41
19890;BME280;10107;51.198;6.824;2022-12-18T16:25:08;-21269.78;;;-1.96;82.79
19890;BME280;10107;51.198;6.824;2022-12-18T16:29:12;-21268.97;;;-1.99;83.11
19890;BME280;10107;51.198;6.824;2022-12-18T16:33:14;-21268.03;;;-2.03;83.79
19890;BME280;10107;51.198;6.824;2022-12-18T16:37:16;-21268.19;;;-2.02;84.62
19890;BME280;10107;51.198;6.824;2022-12-18T16:41:19;-21267.50;;;-2.05;84.83
19890;BME280;10107;51.198;6.824;2022-12-18T16:45:32;-21267.63;;;-2.04;85.35
19890;BME280;10107;51.198;6.824;2022-12-18T16:49:34;-21267.09;;;-2.06;85.58
19890;BME280;10107;51.198;6.824;2022-12-18T16:53:36;-21266.28;;;-2.09;86.80
19890;BME280;10107;51.198;6.824;2022-12-18T16:57:39;-21266.03;;;-2.10;87.40
19890;BME280;10107;51.198;6.824;2022-12-18T17:01:41;-21266.03;;;-2.10;87.18
19890;BME280;10107;51.198;6.824;2022-12-18T17:05:43;-21265.34;;;-2.13;88.08
19890;BME280;10107;51.198;6.824;2022-12-18T17:09:44;-21265.22;;;-2.13;88.06
19890;BME280;10107;51.198;6.824;2022-12-18T17:13:47;-21264.81;;;-2.15;89.05
19890;BME280;10107;51.198;6.824;2022-12-18T17:17:49;-21264.66;;;-2.15;89.36
19890;BME280;10107;51.198;6.824;2022-12-18T17:21:51;-21264.41;;;-2.16;89.30
19890;BME280;10107;51.198;6.824;2022-12-18T17:25:53;-21263.72;;;-2.19;89.98
19890;BME280;10107;51.198;6.824;2022-12-18T17:29:57;-21263.31;;;-2.21;89.94
19890;BME280;10107;51.198;6.824;2022-12-18T17:34:00;-21262.50;;;-2.24;90.44
19890;BME280;10107;51.198;6.824;2022-12-18T17:38:02;-21262.09;;;-2.25;90.19
19890;BME280;10107;51.198;6.824;2022-12-18T17:42:04;-21261.56;;;-2.27;90.24
19890;BME280;10107;51.198;6.824;2022-12-18T17:46:07;-21261.03;;;-2.29;90.38
19890;BME280;10107;51.198;6.824;2022-12-18T17:50:10;-21259.69;;;-2.34;90.84
19890;BME280;10107;51.198;6.824;2022-12-18T17:54:12;-21259.81;;;-2.34;90.76
19890;BME280;10107;51.198;6.824;2022-12-18T17:58:14;-21259.13;;;-2.36;90.62
19890;BME280;10107;51.198;6.824;2022-12-18T18:02:17;-21258.72;;;-2.38;90.46
19890;BME280;10107;51.198;6.824;2022-12-18T18:06:19;-21258.47;;;-2.39;91.20
19890;BME280;10107;51.198;6.824;2022-12-18T18:10:20;-21258.06;;;-2.41;91.38
19890;BME280;10107;51.198;6.824;2022-12-18T18:14:22;-21257.66;;;-2.42;91.41
19890;BME280;10107;51.198;6.824;2022-12-18T18:18:25;-21257.66;;;-2.42;91.16
19890;BME280;10107;51.198;6.824;2022-12-18T18:22:26;-21256.97;;;-2.45;91.07
19890;BME280;10107;51.198;6.824;2022-12-18T18:26:30;-21256.84;;;-2.45;91.50
19890;BME280;10107;51.198;6.824;2022-12-18T18:30:32;-21257.25;;;-2.44;91.23
19890;BME280;10107;51.198;6.824;2022-12-18T18:34:35;-21256.72;;;-2.46;91.06
19890;BME280;10107;51.198;6.824;2022-12-18T18:38:36;-21256.84;;;-2.45;91.79
19890;BME280;10107;51.198;6.824;2022-12-18T18:42:39;-21256.84;;;-2.45;91.56
19890;BME280;10107;51.198;6.824;2022-12-18T18:46:40;-21257.25;;;-2.44;91.82
19890;BME280;10107;51.198;6.824;2022-12-18T18:50:43;-21256.31;;;-2.47;91.35
19890;BME280;10107;51.198;6.824;2022-12-18T18:54:46;-21256.16;;;-2.48;91.84
19890;BME280;10107;51.198;6.824;2022-12-18T18:58:48;-21256.16;;;-2.48;91.90
19890;BME280;10107;51.198;6.824;2022-12-18T19:02:51;-21256.16;;;-2.48;92.02
19890;BME280;10107;51.198;6.824;2022-12-18T19:06:54;-21256.56;;;-2.46;91.75
19890;BME280;10107;51.198;6.824;2022-12-18T19:10:57;-21256.72;;;-2.46;91.71
19890;BME280;10107;51.198;6.824;2022-12-18T19:15:02;-21256.84;;;-2.45;91.57
19890;BME280;10107;51.198;6.824;2022-12-18T19:19:04;-21258.47;;;-2.39;91.62
19890;BME280;10107;51.198;6.824;2022-12-18T19:23:07;-21259.00;;;-2.37;91.20
19890;BME280;10107;51.198;6.824;2022-12-18T19:27:09;-21259.41;;;-2.35;91.34
19890;BME280;10107;51.198;6.824;2022-12-18T19:31:13;-21260.63;;;-2.31;91.79
19890;BME280;10107;51.198;6.824;2022-12-18T19:35:16;-21261.69;;;-2.27;90.98
19890;BME280;10107;51.198;6.824;2022-12-18T19:39:19;-21263.06;;;-2.22;90.82
19890;BME280;10107;51.198;6.824;2022-12-18T19:43:21;-21264.00;;;-2.18;90.88
19890;BME280;10107;51.198;6.824;2022-12-18T19:47:23;-21265.22;;;-2.13;90.42
19890;BME280;10107;51.198;6.824;2022-12-18T19:51:26;-21265.63;;;-2.12;90.41
19890;BME280;10107;51.198;6.824;2022-12-18T19:55:31;-21266.16;;;-2.10;90.36
19890;BME280;10107;51.198;6.824;2022-12-18T19:59:33;-21267.09;;;-2.06;90.22
19890;BME280;10107;51.198;6.824;2022-12-18T20:03:36;-21267.22;;;-2.06;90.07
19890;BME280;10107;51.198;6.824;2022-12-18T20:07:39;-21267.78;;;-2.04;89.56
19890;BME280;10107;51.198;6.824;2022-12-18T20:11:44;-21268.97;;;-1.99;90.34
19890;BME280;10107;51.198;6.824;2022-12-18T20:15:46;-21269.38;;;-1.97;89.77
19890;BME280;10107;51.198;6.824;2022-12-18T20:19:48;-21270.47;;;-1.93;90.13
19890;BME280;10107;51.198;6.824;2022-12-18T20:23:51;-21271.16;;;-1.91;89.86
19890;BME280;10107;51.198;6.824;2022-12-18T20:27:56;-21270.88;;;-1.92;90.79
19890;BME280;10107;51.198;6.824;2022-12-18T20:32:00;-21271.16;;;-1.91;91.56
19890;BME280;10107;51.198;6.824;2022-12-18T20:36:04;-21271.41;;;-1.90;91.94
19890;BME280;10107;51.198;6.824;2022-12-18T20:40:06;-21272.22;;;-1.87;91.98
19890;BME280;10107;51.198;6.824;2022-12-18T20:44:15;-21272.91;;;-1.84;92.15
19890;BME280;10107;51.198;6.824;2022-12-18T20:48:20;-21273.69;;;-1.81;91.86
19890;BME280;10107;51.198;6.824;2022-12-18T20:52:22;-21273.69;;;-1.81;91.70
19890;BME280;10107;51.198;6.824;2022-12-18T20:56:24;-21275.06;;;-1.76;91.44
19890;BME280;10107;51.198;6.824;2022-12-18T21:00:29;-21275.47;;;-1.74;91.93
19890;BME280;10107;51.198;6.824;2022-12-18T21:04:30;-21276.41;;;-1.71;91.38
19890;BME280;10107;51.198;6.824;2022-12-18T21:08:33;-21277.47;;;-1.67;91.50
19890;BME280;10107;51.198;6.824;2022-12-18T21:12:36;-21278.28;;;-1.64;91.24